sensor_id;sensor_type;location;lat;lon;timestamp;pressure;altitude;pressure_sealevel;temperature;humidity
19086;BME280;9675;51.538;6.728;2023-02-18T00:01:32;101882.84;;;11.23;100.00
19086;BME280;9675;51.538;6.728;2023-02-18T00:04:00;101882.84;;;11.23;100.00
19086;BME280;9675;51.538;6.728;2023-02-18T00:06:30;101872.53;;;11.23;100.00
19086;BME280;9675;51.538;6.728;2023-02-18T00:08:58;101875.13;;;11.23;100.00
19086;BME280;9675;51.538;6.728;2023-02-18T00:11:28;101875.00;;;11.22;100.00
19086;BME280;9675;51.538;6.728;2023-02-18T00:13:58;101860.44;;;11.22;100.00
19086;BME280;9675;51.538;6.728;2023-02-18T00:16:29;101871.63;;;11.23;100.00
19086;BME280;9675;51.538;6.728;2023-02-18T00:18:58;101864.69;;;11.22;100.00
19086;BME280;9675;51.538;6.728;2023-02-18T00:21:26;101865.59;;;11.22;100.00
19086;BME280;9675;51.538;6.728;2023-02-18T00:23:54;101862.00;;;11.20;100.00
19086;BME280;9675;51.538;6.728;2023-02-18T00:26:21;101863.78;;;11.21;100.00
19086;BME280;9675;51.538;6.728;2023-02-18T00:28:48;101860.22;;;11.19;100.00
19086;BME280;9675;51.538;6.728;2023-02-18T00:31:20;101861.13;;;11.20;100.00
19086;BME280;9675;51.538;6.728;2023-02-18T00:33:49;101858.47;;;11.18;100.00
19086;BME280;9675;51.538;6.728;2023-02-18T00:36:18;101853.31;;;11.18;100.00
19086;BME280;9675;51.538;6.728;2023-02-18T00:38:47;101862.00;;;11.20;100.00
19086;BME280;9675;51.538;6.728;2023-02-18T00:41:16;101849.03;;;11.19;100.00
19086;BME280;9675;51.538;6.728;2023-02-18T00:43:43;101830.09;;;11.18;100.00
19086;BME280;9675;51.538;6.728;2023-02-18T00:46:11;101833.59;;;11.19;100.00
19086;BME280;9675;51.538;6.728;2023-02-18T00:48:39;101827.53;;;11.18;100.00
19086;BME280;9675;51.538;6.728;2023-02-18T00:51:07;101828.44;;;11.19;100.00
19086;BME280;9675;51.538;6.728;2023-02-18T00:53:35;101822.38;;;11.18;100.00
19086;BME280;9675;51.538;6.728;2023-02-18T00:56:04;101821.56;;;11.19;100.00
19086;BME280;9675;51.538;6.728;2023-02-18T00:58:33;101817.22;;;11.18;100.00
19086;BME280;9675;51.538;6.728;2023-02-18T01:01:02;101822.38;;;11.18;100.00
19086;BME280;9675;51.538;6.728;2023-02-18T01:03:29;101824.13;;;11.19;100.00
19086;BME280;9675;51.538;6.728;2023-02-18T01:05:56;101819.78;;;11.18;100.00
19086;BME280;9675;51.538;6.728;2023-02-18T01:08:24;101818.91;;;11.18;100.00
19086;BME280;9675;51.538;6.728;2023-02-18T01:10:55;101820.59;;;11.17;100.00
19086;BME280;9675;51.538;6.728;2023-02-18T01:13:24;101819.69;;;11.17;100.00
19086;BME280;9675;51.538;6.728;2023-02-18T01:15:51;101813.63;;;11.16;100.00
19086;BME280;9675;51.538;6.728;2023-02-18T01:18:19;101809.47;;;11.18;100.00
19086;BME280;9675;51.538;6.728;2023-02-18T01:20:47;101815.44;;;11.17;100.00
19086;BME280;9675;51.538;6.728;2023-02-18T01:23:14;101818.00;;;11.17;100.00
19086;BME280;9675;51.538;6.728;2023-02-18T01:25:43;101804.84;;;11.13;100.00
19086;BME280;9675;51.538;6.728;2023-02-18T01:28:13;101805.81;;;11.15;100.00
19086;BME280;9675;51.538;6.728;2023-02-18T01:30:41;101799.06;;;11.17;100.00
19086;BME280;9675;51.538;6.728;2023-02-18T01:33:08;101793.00;;;11.16;100.00
19086;BME280;9675;51.538;6.728;2023-02-18T01:35:38;101795.69;;;11.18;100.00
19086;BME280;9675;51.538;6.728;2023-02-18T01:38:05;101795.50;;;11.15;100.00
19086;BME280;9675;51.538;6.728;2023-02-18T01:40:33;101788.75;;;11.17;100.00
19086;BME280;9675;51.538;6.728;2023-02-18T01:43:02;101790.34;;;11.15;100.00
19086;BME280;9675;51.538;6.728;2023-02-18T01:46:18;101789.16;;;11.09;100.00
19086;BME280;9675;51.538;6.728;2023-02-18T01:48:50;101782.25;;;11.08;100.00
19086;BME280;9675;51.538;6.728;2023-02-18T01:51:23;101785.91;;;11.12;100.00
19086;BME280;9675;51.538;6.728;2023-02-18T01:53:55;101785.91;;;11.12;100.00
19086;BME280;9675;51.538;6.728;2023-02-18T01:56:27;101785.91;;;11.12;100.00
19086;BME280;9675;51.538;6.728;2023-02-18T01:59:00;101779.84;;;11.12;100.00
19086;BME280;9675;51.538;6.728;2023-02-18T02:01:31;101775.59;;;11.12;100.00
19086;BME280;9675;51.538;6.728;2023-02-18T02:03:58;101777.28;;;11.12;100.00
19086;BME280;9675;51.538;6.728;2023-02-18T02:06:25;101773.78;;;11.11;100.00
19086;BME280;9675;51.538;6.728;2023-02-18T02:08:57;101768.63;;;11.11;100.00
19086;BME280;9675;51.538;6.728;2023-02-18T02:11:44;101762.59;;;11.11;100.00
19086;BME280;9675;51.538;6.728;2023-02-18T02:14:32;101775.59;;;11.12;100.00
19086;BME280;9675;51.538;6.728;2023-02-18T02:17:06;101766.97;;;11.12;100.00
19086;BME280;9675;51.538;6.728;2023-02-18T02:20:35;101768.63;;;11.11;100.00
19086;BME280;9675;51.538;6.728;2023-02-18T02:23:56;101761.69;;;11.10;100.00
19086;BME280;9675;51.538;6.728;2023-02-18T02:27:02;101754.75;;;11.09;100.00
19086;BME280;9675;51.538;6.728;2023-02-18T02:33:28;101756.38;;;11.07;100.00
19086;BME280;9675;51.538;6.728;2023-02-18T02:36:08;101756.38;;;11.07;100.00
19086;BME280;9675;51.538;6.728;2023-02-18T02:38:52;101758.16;;;11.08;100.00
19086;BME280;9675;51.538;6.728;2023-02-18T02:41:38;101742.69;;;11.08;100.00
19086;BME280;9675;51.538;6.728;2023-02-18T02:44:19;101734.06;;;11.07;100.00
19086;BME280;9675;51.538;6.728;2023-02-18T02:46:51;101746.06;;;11.07;100.00
19086;BME280;9675;51.538;6.728;2023-02-18T02:49:36;101740.13;;;11.08;100.00
19086;BME280;9675;51.538;6.728;2023-02-18T02:52:14;101739.13;;;11.06;100.00
19086;BME280;9675;51.538;6.728;2023-02-18T02:54:41;101727.13;;;11.06;100.00
19086;BME280;9675;51.538;6.728;2023-02-18T02:57:45;101726.22;;;11.06;100.00
19086;BME280;9675;51.538;6.728;2023-02-18T03:03:16;101704.63;;;11.04;100.00
19086;BME280;9675;51.538;6.728;2023-02-18T03:06:10;101700.34;;;11.04;100.00
19086;BME280;9675;51.538;6.728;2023-02-18T03:08:56;101693.44;;;11.03;100.00
19086;BME280;9675;51.538;6.728;2023-02-18T03:11:32;101695.91;;;11.02;100.00
19086;BME280;9675;51.538;6.728;2023-02-18T03:14:12;101694.22;;;11.02;100.00
19086;BME280;9675;51.538;6.728;2023-02-18T03:16:48;101682.94;;;11.00;100.00
19086;BME280;9675;51.538;6.728;2023-02-18T03:19:21;101677.78;;;11.00;100.00
19086;BME280;9675;51.538;6.728;2023-02-18T03:21:56;101676.88;;;11.00;100.00
19086;BME280;9675;51.538;6.728;2023-02-18T03:24:30;101663.09;;;10.99;100.00
19086;BME280;9675;51.538;6.728;2023-02-18T03:27:05;101659.63;;;10.99;100.00
19086;BME280;9675;51.538;6.728;2023-02-18T03:29:35;101664.72;;;10.97;100.00
19086;BME280;9675;51.538;6.728;2023-02-18T03:32:07;101656.09;;;10.97;100.00
19086;BME280;9675;51.538;6.728;2023-02-18T03:34:40;101656.09;;;10.97;100.00
19086;BME280;9675;51.538;6.728;2023-02-18T03:37:11;101653.50;;;10.97;100.00
19086;BME280;9675;51.538;6.728;2023-02-18T03:39:47;101651.84;;;10.97;100.00
19086;BME280;9675;51.538;6.728;2023-02-18T03:42:16;101650.94;;;10.97;100.00
19086;BME280;9675;51.538;6.728;2023-02-18T03:44:43;101646.56;;;10.96;100.00
19086;BME280;9675;51.538;6.728;2023-02-18T03:47:11;101638.84;;;10.96;100.00
19086;BME280;9675;51.538;6.728;2023-02-18T03:49:38;101647.38;;;10.95;100.00
19086;BME280;9675;51.538;6.728;2023-02-18T03:52:05;101640.44;;;10.94;100.00
19086;BME280;9675;51.538;6.728;2023-02-18T03:54:32;101639.63;;;10.95;100.00
19086;BME280;9675;51.538;6.728;2023-02-18T03:57:00;101623.22;;;10.93;100.00
19086;BME280;9675;51.538;6.728;2023-02-18T03:59:27;101643.00;;;10.94;100.00
19086;BME280;9675;51.538;6.728;2023-02-18T04:01:54;101644.69;;;10.93;100.00
19086;BME280;9675;51.538;6.728;2023-02-18T04:04:21;101626.56;;;10.92;100.00
19086;BME280;9675;51.538;6.728;2023-02-18T04:06:48;101627.38;;;10.91;100.00
19086;BME280;9675;51.538;6.728;2023-02-18T04:09:15;101616.28;;;10.92;100.00
19086;BME280;9675;51.538;6.728;2023-02-18T04:11:42;101612.81;;;10.91;100.00
19086;BME280;9675;51.538;6.728;2023-02-18T04:14:13;101616.28;;;10.92;100.00
19086;BME280;9675;51.538;6.728;2023-02-18T04:16:41;101610.22;;;10.91;100.00
19086;BME280;9675;51.538;6.728;2023-02-18T04:19:08;101605.06;;;10.91;100.00
19086;BME280;9675;51.538;6.728;2023-02-18T04:21:35;101606.84;;;10.92;100.00
19086;BME280;9675;51.538;6.728;2023-02-18T04:24:02;101597.25;;;10.90;100.00
19086;BME280;9675;51.538;6.728;2023-02-18T04:26:29;101599.03;;;10.91;100.00
19086;BME280;9675;51.538;6.728;2023-02-18T04:28:56;101595.56;;;10.90;100.00
19086;BME280;9675;51.538;6.728;2023-02-18T04:31:25;101585.25;;;10.90;100.00
19086;BME280;9675;51.538;6.728;2023-02-18T04:33:52;101586.94;;;10.90;100.00
19086;BME280;9675;51.538;6.728;2023-02-18T04:36:19;101581.78;;;10.90;100.00
19086;BME280;9675;51.538;6.728;2023-02-18T04:38:46;101587.81;;;10.90;100.00
19086;BME280;9675;51.538;6.728;2023-02-18T04:41:13;101586.94;;;10.90;100.00
19086;BME280;9675;51.538;6.728;2023-02-18T04:43:40;101583.47;;;10.89;100.00
19086;BME280;9675;51.538;6.728;2023-02-18T04:46:07;101585.16;;;10.89;100.00
19086;BME280;9675;51.538;6.728;2023-02-18T04:48:35;101580.00;;;10.89;100.00
19086;BME280;9675;51.538;6.728;2023-02-18T04:51:02;101582.56;;;10.89;100.00
19086;BME280;9675;51.538;6.728;2023-02-18T04:53:30;101571.31;;;10.87;100.00
19086;BME280;9675;51.538;6.728;2023-02-18T04:55:57;101569.63;;;10.87;100.00
19086;BME280;9675;51.538;6.728;2023-02-18T04:58:24;101559.22;;;10.86;100.00
19086;BME280;9675;51.538;6.728;2023-02-18T05:00:51;101565.25;;;10.86;100.00
19086;BME280;9675;51.538;6.728;2023-02-18T05:03:19;101555.75;;;10.85;100.00
19086;BME280;9675;51.538;6.728;2023-02-18T05:05:47;101563.47;;;10.85;100.00
19086;BME280;9675;51.538;6.728;2023-02-18T05:08:14;101558.22;;;10.84;100.00
19086;BME280;9675;51.538;6.728;2023-02-18T05:10:41;101554.69;;;10.82;100.00
19086;BME280;9675;51.538;6.728;2023-02-18T05:13:08;101552.09;;;10.82;100.00
19086;BME280;9675;51.538;6.728;2023-02-18T05:15:35;101550.31;;;10.81;100.00
19086;BME280;9675;51.538;6.728;2023-02-18T05:18:02;101551.22;;;10.81;100.00
19086;BME280;9675;51.538;6.728;2023-02-18T05:20:30;101550.31;;;10.81;100.00
19086;BME280;9675;51.538;6.728;2023-02-18T05:22:58;101547.66;;;10.79;100.00
19086;BME280;9675;51.538;6.728;2023-02-18T05:25:25;101536.44;;;10.79;100.00
19086;BME280;9675;51.538;6.728;2023-02-18T05:27:52;101534.66;;;10.78;100.00
19086;BME280;9675;51.538;6.728;2023-02-18T05:30:19;101527.81;;;10.78;100.00
19086;BME280;9675;51.538;6.728;2023-02-18T05:32:47;101515.78;;;10.77;100.00
19086;BME280;9675;51.538;6.728;2023-02-18T05:35:14;101519.94;;;10.75;100.00
19086;BME280;9675;51.538;6.728;2023-02-18T05:37:41;101527.75;;;10.77;100.00
19086;BME280;9675;51.538;6.728;2023-02-18T05:40:10;101519.03;;;10.75;100.00
19086;BME280;9675;51.538;6.728;2023-02-18T05:42:38;101516.47;;;10.75;100.00
19086;BME280;9675;51.538;6.728;2023-02-18T05:45:06;101510.16;;;10.70;100.00
19086;BME280;9675;51.538;6.728;2023-02-18T05:47:33;101490.59;;;10.73;100.00
19086;BME280;9675;51.538;6.728;2023-02-18T05:50:00;101505.16;;;10.73;100.00
19086;BME280;9675;51.538;6.728;2023-02-18T05:52:27;101510.31;;;10.73;100.00
19086;BME280;9675;51.538;6.728;2023-02-18T05:54:54;101490.53;;;10.72;100.00
19086;BME280;9675;51.538;6.728;2023-02-18T05:57:22;101506.94;;;10.74;100.00
19086;BME280;9675;51.538;6.728;2023-02-18T05:59:50;101493.13;;;10.72;100.00
19086;BME280;9675;51.538;6.728;2023-02-18T06:02:17;101493.91;;;10.71;100.00
19086;BME280;9675;51.538;6.728;2023-02-18T06:04:44;101500.75;;;10.70;100.00
19086;BME280;9675;51.538;6.728;2023-02-18T06:07:11;101494.69;;;10.70;100.00
19086;BME280;9675;51.538;6.728;2023-02-18T06:09:38;101492.03;;;10.68;100.00
19086;BME280;9675;51.538;6.728;2023-02-18T06:12:05;101486.97;;;10.70;100.00
19086;BME280;9675;51.538;6.728;2023-02-18T06:14:34;101485.19;;;10.69;100.00
19086;BME280;9675;51.538;6.728;2023-02-18T06:17:01;101481.66;;;10.67;100.00
19086;BME280;9675;51.538;6.728;2023-02-18T06:19:28;101488.50;;;10.66;100.00
19086;BME280;9675;51.538;6.728;2023-02-18T06:21:55;101483.34;;;10.66;100.00
19086;BME280;9675;51.538;6.728;2023-02-18T06:24:22;101477.41;;;10.67;100.00
19086;BME280;9675;51.538;6.728;2023-02-18T06:26:49;101485.91;;;10.66;100.00
19086;BME280;9675;51.538;6.728;2023-02-18T06:29:16;101481.56;;;10.65;100.00
19086;BME280;9675;51.538;6.728;2023-02-18T06:31:44;101487.59;;;10.65;100.00
19086;BME280;9675;51.538;6.728;2023-02-18T06:34:11;101492.75;;;10.65;100.00
19086;BME280;9675;51.538;6.728;2023-02-18T06:36:39;101495.22;;;10.64;100.00
19086;BME280;9675;51.538;6.728;2023-02-18T06:39:09;101494.34;;;10.63;100.00
19086;BME280;9675;51.538;6.728;2023-02-18T06:41:36;101492.53;;;10.62;100.00
19086;BME280;9675;51.538;6.728;2023-02-18T06:44:12;101505.41;;;10.62;100.00
19086;BME280;9675;51.538;6.728;2023-02-18T06:46:51;101495.13;;;10.62;100.00
19086;BME280;9675;51.538;6.728;2023-02-18T06:49:18;101494.16;;;10.60;100.00
19086;BME280;9675;51.538;6.728;2023-02-18T06:51:45;101492.38;;;10.59;100.00
19086;BME280;9675;51.538;6.728;2023-02-18T06:54:12;101498.41;;;10.60;100.00
19086;BME280;9675;51.538;6.728;2023-02-18T06:56:42;101499.31;;;10.60;100.00
19086;BME280;9675;51.538;6.728;2023-02-18T06:59:09;101488.91;;;10.59;100.00
19086;BME280;9675;51.538;6.728;2023-02-18T07:01:36;101484.66;;;10.59;100.00
19086;BME280;9675;51.538;6.728;2023-02-18T07:04:04;101485.44;;;10.58;100.00
19086;BME280;9675;51.538;6.728;2023-02-18T07:06:31;101485.44;;;10.58;100.00
19086;BME280;9675;51.538;6.728;2023-02-18T07:08:59;101488.81;;;10.57;100.00
19086;BME280;9675;51.538;6.728;2023-02-18T07:11:31;101481.91;;;10.56;100.00
19086;BME280;9675;51.538;6.728;2023-02-18T07:14:03;101492.22;;;10.56;100.00
19086;BME280;9675;51.538;6.728;2023-02-18T07:16:31;101500.72;;;10.55;100.00
19086;BME280;9675;51.538;6.728;2023-02-18T07:18:59;101505.88;;;10.55;100.00
19086;BME280;9675;51.538;6.728;2023-02-18T07:21:28;101509.25;;;10.54;100.00
19086;BME280;9675;51.538;6.728;2023-02-18T07:23:55;101511.81;;;10.54;100.00
19086;BME280;9675;51.538;6.728;2023-02-18T07:26:22;101507.44;;;10.53;100.00
19086;BME280;9675;51.538;6.728;2023-02-18T07:28:49;101503.03;;;10.51;100.00
19086;BME280;9675;51.538;6.728;2023-02-18T07:31:16;101508.25;;;10.52;100.00
19086;BME280;9675;51.538;6.728;2023-02-18T07:33:43;101515.06;;;10.52;100.00
19086;BME280;9675;51.538;6.728;2023-02-18T07:36:11;101508.19;;;10.51;100.00
19086;BME280;9675;51.538;6.728;2023-02-18T07:38:39;101520.22;;;10.52;100.00
19086;BME280;9675;51.538;6.728;2023-02-18T07:41:13;101514.22;;;10.51;100.00
19086;BME280;9675;51.538;6.728;2023-02-18T07:43:42;101500.34;;;10.49;100.00
19086;BME280;9675;51.538;6.728;2023-02-18T07:46:10;101505.50;;;10.49;100.00
19086;BME280;9675;51.538;6.728;2023-02-18T07:48:37;101502.81;;;10.48;100.00
19086;BME280;9675;51.538;6.728;2023-02-18T07:51:06;101496.00;;;10.48;100.00
19086;BME280;9675;51.538;6.728;2023-02-18T07:53:33;101505.41;;;10.48;100.00
19086;BME280;9675;51.538;6.728;2023-02-18T07:56:02;101513.13;;;10.48;100.00
19086;BME280;9675;51.538;6.728;2023-02-18T07:58:33;101524.31;;;10.48;100.00
19086;BME280;9675;51.538;6.728;2023-02-18T08:01:04;101524.31;;;10.48;100.00
19086;BME280;9675;51.538;6.728;2023-02-18T08:03:32;101512.22;;;10.47;100.00
19086;BME280;9675;51.538;6.728;2023-02-18T08:06:01;101525.94;;;10.46;100.00
19086;BME280;9675;51.538;6.728;2023-02-18T08:08:31;101537.09;;;10.47;100.00
19086;BME280;9675;51.538;6.728;2023-02-18T08:11:02;101536.22;;;10.46;100.00
19086;BME280;9675;51.538;6.728;2023-02-18T08:13:31;101524.16;;;10.45;100.00
19086;BME280;9675;51.538;6.728;2023-02-18T08:15:58;101518.09;;;10.45;100.00
19086;BME280;9675;51.538;6.728;2023-02-18T08:18:26;101527.50;;;10.44;100.00
19086;BME280;9675;51.538;6.728;2023-02-18T08:20:53;101532.47;;;10.41;100.00
19086;BME280;9675;51.538;6.728;2023-02-18T08:23:21;101525.72;;;10.43;100.00
19086;BME280;9675;51.538;6.728;2023-02-18T08:25:52;101521.38;;;10.42;100.00
19086;BME280;9675;51.538;6.728;2023-02-18T08:28:22;101528.19;;;10.42;100.00
19086;BME280;9675;51.538;6.728;2023-02-18T08:30:52;101518.78;;;10.42;100.00
19086;BME280;9675;51.538;6.728;2023-02-18T08:33:21;101515.25;;;10.40;100.00
19086;BME280;9675;51.538;6.728;2023-02-18T08:35:51;101515.25;;;10.40;100.00
19086;BME280;9675;51.538;6.728;2023-02-18T08:38:19;101522.19;;;10.41;100.00
19086;BME280;9675;51.538;6.728;2023-02-18T08:40:47;101528.13;;;10.40;100.00
19086;BME280;9675;51.538;6.728;2023-02-18T08:43:16;101521.28;;;10.41;100.00
19086;BME280;9675;51.538;6.728;2023-02-18T08:45:45;101515.25;;;10.40;100.00
19086;BME280;9675;51.538;6.728;2023-02-18T08:48:13;101521.19;;;10.39;100.00
19086;BME280;9675;51.538;6.728;2023-02-18T08:50:41;101531.59;;;10.41;100.00
19086;BME280;9675;51.538;6.728;2023-02-18T08:53:08;101535.84;;;10.40;100.00
19086;BME280;9675;51.538;6.728;2023-02-18T08:55:35;101524.56;;;10.38;100.00
19086;BME280;9675;51.538;6.728;2023-02-18T08:58:04;101514.16;;;10.37;100.00
19086;BME280;9675;51.538;6.728;2023-02-18T09:00:32;101518.44;;;10.36;100.00
19086;BME280;9675;51.538;6.728;2023-02-18T09:03:01;101523.47;;;10.35;100.00
19086;BME280;9675;51.538;6.728;2023-02-18T09:05:29;101523.38;;;10.33;100.00
19086;BME280;9675;51.538;6.728;2023-02-18T09:07:56;101524.16;;;10.32;100.00
19086;BME280;9675;51.538;6.728;2023-02-18T09:10:24;101515.50;;;10.30;100.00
19086;BME280;9675;51.538;6.728;2023-02-18T09:12:51;101526.75;;;10.32;100.00
19086;BME280;9675;51.538;6.728;2023-02-18T09:15:18;101526.75;;;10.32;100.00
19086;BME280;9675;51.538;6.728;2023-02-18T09:17:45;101519.75;;;10.30;100.00
19086;BME280;9675;51.538;6.728;2023-02-18T09:20:13;101529.03;;;10.28;100.00
19086;BME280;9675;51.538;6.728;2023-02-18T09:22:40;101531.72;;;10.29;100.00
19086;BME280;9675;51.538;6.728;2023-02-18T09:25:08;101535.88;;;10.27;100.00
19086;BME280;9675;51.538;6.728;2023-02-18T09:27:35;101540.06;;;10.25;100.00
19086;BME280;9675;51.538;6.728;2023-02-18T09:30:03;101527.97;;;10.24;100.00
19086;BME280;9675;51.538;6.728;2023-02-18T09:32:31;101531.50;;;10.26;100.00
19086;BME280;9675;51.538;6.728;2023-02-18T09:34:58;101527.09;;;10.23;100.00
19086;BME280;9675;51.538;6.728;2023-02-18T09:37:26;101526.19;;;10.23;100.00
19086;BME280;9675;51.538;6.728;2023-02-18T09:39:53;101515.00;;;10.22;100.00
19086;BME280;9675;51.538;6.728;2023-02-18T09:42:29;101514.91;;;10.21;100.00
19086;BME280;9675;51.538;6.728;2023-02-18T09:45:02;101523.50;;;10.21;100.00
19086;BME280;9675;51.538;6.728;2023-02-18T09:47:34;101506.38;;;10.22;100.00
19086;BME280;9675;51.538;6.728;2023-02-18T09:50:11;101501.84;;;10.18;100.00
19086;BME280;9675;51.538;6.728;2023-02-18T09:52:41;101514.91;;;10.21;100.00
19086;BME280;9675;51.538;6.728;2023-02-18T09:55:23;101501.16;;;10.20;100.00
19086;BME280;9675;51.538;6.728;2023-02-18T09:57:55;101496.88;;;10.21;100.00
19086;BME280;9675;51.538;6.728;2023-02-18T10:00:30;101515.72;;;10.20;100.00
19086;BME280;9675;51.538;6.728;2023-02-18T10:03:03;101525.19;;;10.21;100.00
19086;BME280;9675;51.538;6.728;2023-02-18T10:05:34;101520.88;;;10.20;100.00
19086;BME280;9675;51.538;6.728;2023-02-18T10:08:07;101527.47;;;10.16;100.00
19086;BME280;9675;51.538;6.728;2023-02-18T10:10:45;101518.28;;;10.20;100.00
19086;BME280;9675;51.538;6.728;2023-02-18T10:13:15;101517.41;;;10.19;100.00
19086;BME280;9675;51.538;6.728;2023-02-18T10:15:44;101523.34;;;10.18;100.00
19086;BME280;9675;51.538;6.728;2023-02-18T10:18:26;101520.44;;;10.14;100.00
19086;BME280;9675;51.538;6.728;2023-02-18T10:21:03;101526.50;;;10.14;100.00
19086;BME280;9675;51.538;6.728;2023-02-18T10:23:37;101529.06;;;10.14;100.00
19086;BME280;9675;51.538;6.728;2023-02-18T10:26:11;101530.75;;;10.14;100.00
19086;BME280;9675;51.538;6.728;2023-02-18T10:28:40;101535.00;;;10.13;100.00
19086;BME280;9675;51.538;6.728;2023-02-18T10:31:12;101543.94;;;10.18;100.00
19086;BME280;9675;51.538;6.728;2023-02-18T10:33:49;101536.09;;;10.17;100.00
19086;BME280;9675;51.538;6.728;2023-02-18T10:36:25;101538.00;;;10.19;100.00
19086;BME280;9675;51.538;6.728;2023-02-18T10:39:23;101546.59;;;10.20;100.00
19086;BME280;9675;51.538;6.728;2023-02-18T10:42:06;101547.50;;;10.20;100.00
19086;BME280;9675;51.538;6.728;2023-02-18T10:44:47;101560.38;;;10.20;100.00
19086;BME280;9675;51.538;6.728;2023-02-18T10:47:28;101562.84;;;10.19;100.00
19086;BME280;9675;51.538;6.728;2023-02-18T10:49:59;101551.53;;;10.17;100.00
19086;BME280;9675;51.538;6.728;2023-02-18T10:52:30;101561.03;;;10.18;100.00
19086;BME280;9675;51.538;6.728;2023-02-18T10:55:05;101562.72;;;10.17;100.00
19086;BME280;9675;51.538;6.728;2023-02-18T10:57:45;101566.97;;;10.17;100.00
19086;BME280;9675;51.538;6.728;2023-02-18T11:00:19;101566.97;;;10.17;100.00
19086;BME280;9675;51.538;6.728;2023-02-18T11:03:11;101572.03;;;10.15;100.00
19086;BME280;9675;51.538;6.728;2023-02-18T11:05:40;101564.19;;;10.14;100.00
19086;BME280;9675;51.538;6.728;2023-02-18T11:08:13;101577.06;;;10.14;100.00
19086;BME280;9675;51.538;6.728;2023-02-18T11:10:45;101566.38;;;10.08;100.00
19086;BME280;9675;51.538;6.728;2023-02-18T11:13:16;101557.66;;;10.06;100.00
19086;BME280;9675;51.538;6.728;2023-02-18T11:15:58;101572.13;;;10.04;100.00
19086;BME280;9675;51.538;6.728;2023-02-18T11:18:38;101573.72;;;10.02;100.00
19086;BME280;9675;51.538;6.728;2023-02-18T11:21:19;101577.06;;;10.01;100.00
19086;BME280;9675;51.538;6.728;2023-02-18T11:23:50;101570.16;;;10.00;100.00
19086;BME280;9675;51.538;6.728;2023-02-18T11:26:27;101566.09;;;10.03;100.00
19086;BME280;9675;51.538;6.728;2023-02-18T11:29:00;101567.06;;;10.05;100.00
19086;BME280;9675;51.538;6.728;2023-02-18T11:31:40;101563.69;;;10.06;100.00
19086;BME280;9675;51.538;6.728;2023-02-18T11:34:17;101571.41;;;10.06;100.00
19086;BME280;9675;51.538;6.728;2023-02-18T11:36:47;101564.59;;;10.07;100.00
19086;BME280;9675;51.538;6.728;2023-02-18T11:39:20;101563.69;;;10.06;100.00
19086;BME280;9675;51.538;6.728;2023-02-18T11:41:55;101565.38;;;10.06;100.00
19086;BME280;9675;51.538;6.728;2023-02-18T11:44:28;101572.31;;;10.07;100.00
19086;BME280;9675;51.538;6.728;2023-02-18T11:47:00;101565.47;;;10.07;100.00
19086;BME280;9675;51.538;6.728;2023-02-18T11:49:29;101566.38;;;10.08;100.00
19086;BME280;9675;51.538;6.728;2023-02-18T11:52:15;101558.56;;;10.06;100.00
19086;BME280;9675;51.538;6.728;2023-02-18T11:54:58;101565.47;;;10.07;100.00
19086;BME280;9675;51.538;6.728;2023-02-18T11:57:27;101564.50;;;10.05;100.00
19086;BME280;9675;51.538;6.728;2023-02-18T11:59:57;101566.38;;;10.08;100.00
19086;BME280;9675;51.538;6.728;2023-02-18T12:02:32;101566.28;;;10.06;100.00
19086;BME280;9675;51.538;6.728;2023-02-18T12:05:07;101564.59;;;10.07;100.00
19086;BME280;9675;51.538;6.728;2023-02-18T12:07:44;101555.28;;;10.09;100.00
19086;BME280;9675;51.538;6.728;2023-02-18T12:10:20;101562.13;;;10.08;100.00
19086;BME280;9675;51.538;6.728;2023-02-18T12:12:59;101567.16;;;10.07;100.00
19086;BME280;9675;51.538;6.728;2023-02-18T12:15:43;101563.69;;;10.06;100.00
19086;BME280;9675;51.538;6.728;2023-02-18T12:18:43;101551.84;;;10.08;100.00
19086;BME280;9675;51.538;6.728;2023-02-18T12:21:35;101558.66;;;10.08;100.00
19086;BME280;9675;51.538;6.728;2023-02-18T12:24:21;101550.84;;;10.06;100.00
19086;BME280;9675;51.538;6.728;2023-02-18T12:27:06;101545.00;;;10.09;100.00
19086;BME280;9675;51.538;6.728;2023-02-18T12:30:18;101551.84;;;10.08;100.00
19086;BME280;9675;51.538;6.728;2023-02-18T12:32:56;101544.22;;;10.10;100.00
19086;BME280;9675;51.538;6.728;2023-02-18T12:35:54;101545.91;;;10.09;100.00
19086;BME280;9675;51.538;6.728;2023-02-18T12:38:47;101551.34;;;10.14;100.00
19086;BME280;9675;51.538;6.728;2023-02-18T12:41:33;101539.56;;;10.04;100.00
19086;BME280;9675;51.538;6.728;2023-02-18T12:44:28;101542.03;;;10.03;100.00
19086;BME280;9675;51.538;6.728;2023-02-18T12:47:30;101532.66;;;10.03;100.00
19086;BME280;9675;51.538;6.728;2023-02-18T12:50:21;101533.53;;;10.04;100.00
19086;BME280;9675;51.538;6.728;2023-02-18T12:53:11;101537.34;;;10.10;100.00
19086;BME280;9675;51.538;6.728;2023-02-18T12:55:56;101539.06;;;10.10;100.00
19086;BME280;9675;51.538;6.728;2023-02-18T12:58:42;101535.69;;;10.11;100.00
19086;BME280;9675;51.538;6.728;2023-02-18T13:01:34;101536.41;;;10.08;100.00
19086;BME280;9675;51.538;6.728;2023-02-18T13:04:53;101534.59;;;10.07;100.00
19086;BME280;9675;51.538;6.728;2023-02-18T13:07:53;101532.81;;;10.06;100.00
19086;BME280;9675;51.538;6.728;2023-02-18T13:11:00;101531.13;;;10.07;100.00
19086;BME280;9675;51.538;6.728;2023-02-18T13:13:34;101546.19;;;10.14;100.00
19086;BME280;9675;51.538;6.728;2023-02-18T13:16:08;101533.41;;;10.15;100.00
19086;BME280;9675;51.538;6.728;2023-02-18T13:18:41;101540.34;;;10.16;100.00
19086;BME280;9675;51.538;6.728;2023-02-18T13:21:13;101537.00;;;10.17;100.00
19086;BME280;9675;51.538;6.728;2023-02-18T13:23:50;101550.75;;;10.18;100.00
19086;BME280;9675;51.538;6.728;2023-02-18T13:26:20;101548.28;;;10.19;100.00